^^
Station Historical Data
 
Daily Summary for January 16, 2019 Units:  Both    English   Metric
« Previous Day
Next Day »
Daily Weekly Monthly Yearly Custom
  Current: High: Low: Average:
Temperature: 94.3 °F /  34.6 °C TemperatureF °F /  -17.8 °C 72.1 °F /  22.3 °C 78.6 °F /  25.9 °C
Dew Point: 49.6 °F /  9.8 °C DewpointF °F /  -17.8 °C 49.5 °F /  9.7 °C 53.4 °F /  11.9 °C
Humidity: 22% Humidity% 22% 43%
Wind Speed: 2.0mph /  3.2km/h WindSpeedMPHmph /  0km/h - 1.6mph /  2.6km/h
Wind Gust: 4.0mph /  6.4km/h WindSpeedGustMPHmph /  0km/h - -
WindNorth - - ESE
Pressure: 29.58 in /  1001.6 hPa PressureIn in /  0 hPa 29.57 in /  1001.2 hPa -
Precipitation: 0.00 in /  0 mm      
Historical Graphs
 
 
Tabular Data for January 16, 2019
Time Temperature Dew Point Pressure Wind Wind Speed Wind Gust Humidity Rainfall Rate (Hourly) solar Conditions
TemperatureF °F /  -17.8 °C DewpointF °F /  -17.8 °C PressureInin /  0hPa Calm     Humidity% HourlyPrecipInin /  0mm SolarRadiationWatts/m^2 W/m2 Conditions
00:04 78.3 °F /  25.7 °C 54.5 °F /  12.5 °C 29.64in /  1003.6hPa WNW 0.9mph /  1.4km/h 4.0mph /  6.4km/h 44% 0.00in /  0mm 0.00 W/m2
00:09 78.1 °F /  25.6 °C 54.3 °F /  12.4 °C 29.64in /  1003.6hPa Calm   1.0mph /  1.6km/h 44% 0.00in /  0mm 0.00 W/m2
00:14 78.1 °F /  25.6 °C 54.3 °F /  12.4 °C 29.64in /  1003.6hPa Calm   3.0mph /  4.8km/h 44% 0.00in /  0mm 0.00 W/m2
00:18 77.9 °F /  25.5 °C 54.3 °F /  12.4 °C 29.64in /  1003.6hPa Calm   1.0mph /  1.6km/h 44% 0.00in /  0mm 0.00 W/m2
00:24 77.9 °F /  25.5 °C 54.3 °F /  12.4 °C 29.64in /  1003.6hPa WNW 2.9mph /  4.7km/h 3.0mph /  4.8km/h 44% 0.00in /  0mm 0.00 W/m2
00:29 77.7 °F /  25.4 °C 54.1 °F /  12.3 °C 29.64in /  1003.6hPa Calm   2.0mph /  3.2km/h 44% 0.00in /  0mm 0.00 W/m2
00:34 77.7 °F /  25.4 °C 54.7 °F /  12.6 °C 29.64in /  1003.6hPa Calm   2.0mph /  3.2km/h 45% 0.00in /  0mm 0.00 W/m2
00:39 77.5 °F /  25.3 °C 54.5 °F /  12.5 °C 29.64in /  1003.6hPa Calm     45% 0.00in /  0mm 0.00 W/m2
00:44 77.4 °F /  25.2 °C 54.3 °F /  12.4 °C 29.64in /  1003.6hPa Calm   2.0mph /  3.2km/h 45% 0.00in /  0mm 0.00 W/m2
00:49 77.2 °F /  25.1 °C 54.1 °F /  12.3 °C 29.63in /  1003.3hPa Calm     45% 0.00in /  0mm 0.00 W/m2
00:54 77.2 °F /  25.1 °C 54.1 °F /  12.3 °C 29.63in /  1003.3hPa Calm   1.0mph /  1.6km/h 45% 0.00in /  0mm 0.00 W/m2
00:59 77.0 °F /  25 °C 54.0 °F /  12.2 °C 29.63in /  1003.3hPa Calm   1.0mph /  1.6km/h 45% 0.00in /  0mm 0.00 W/m2
01:03 76.8 °F /  24.9 °C 54.5 °F /  12.5 °C 29.63in /  1003.3hPa Calm     46% 0.00in /  0mm 0.00 W/m2
01:09 76.8 °F /  24.9 °C 54.5 °F /  12.5 °C 29.63in /  1003.3hPa Calm   1.0mph /  1.6km/h 46% 0.00in /  0mm 0.00 W/m2
01:14 76.8 °F /  24.9 °C 54.5 °F /  12.5 °C 29.62in /  1002.9hPa WNW 0.9mph /  1.4km/h 1.0mph /  1.6km/h 46% 0.00in /  0mm 0.00 W/m2
01:19 76.8 °F /  24.9 °C 54.5 °F /  12.5 °C 29.62in /  1002.9hPa Calm     46% 0.00in /  0mm 0.00 W/m2
01:24 76.6 °F /  24.8 °C 54.3 °F /  12.4 °C 29.62in /  1002.9hPa Calm     46% 0.00in /  0mm 0.00 W/m2
01:29 76.6 °F /  24.8 °C 54.3 °F /  12.4 °C 29.62in /  1002.9hPa Calm   1.0mph /  1.6km/h 46% 0.00in /  0mm 0.00 W/m2
01:34 76.6 °F /  24.8 °C 54.3 °F /  12.4 °C 29.62in /  1002.9hPa Calm     46% 0.00in /  0mm 0.00 W/m2
01:38 76.6 °F /  24.8 °C 54.3 °F /  12.4 °C 29.62in /  1002.9hPa Calm     46% 0.00in /  0mm 0.00 W/m2
01:44 76.6 °F /  24.8 °C 54.9 °F /  12.7 °C 29.62in /  1002.9hPa Calm     47% 0.00in /  0mm 0.00 W/m2
01:49 76.6 °F /  24.8 °C 54.9 °F /  12.7 °C 29.62in /  1002.9hPa Calm   1.0mph /  1.6km/h 47% 0.00in /  0mm 0.00 W/m2
01:54 76.5 °F /  24.7 °C 54.7 °F /  12.6 °C 29.61in /  1002.6hPa WNW 0.9mph /  1.4km/h 1.0mph /  1.6km/h 47% 0.00in /  0mm 0.00 W/m2
01:59 76.5 °F /  24.7 °C 54.7 °F /  12.6 °C 29.60in /  1002.3hPa Calm   1.0mph /  1.6km/h 47% 0.00in /  0mm 0.00 W/m2
02:04 76.5 °F /  24.7 °C 54.7 °F /  12.6 °C 29.60in /  1002.3hPa Calm   3.0mph /  4.8km/h 47% 0.00in /  0mm 0.00 W/m2
02:09 76.6 °F /  24.8 °C 54.9 °F /  12.7 °C 29.59in /  1001.9hPa Calm     47% 0.00in /  0mm 0.00 W/m2
02:14 76.6 °F /  24.8 °C 54.9 °F /  12.7 °C 29.59in /  1001.9hPa Calm   1.0mph /  1.6km/h 47% 0.00in /  0mm 0.00 W/m2
02:19 76.6 °F /  24.8 °C 54.9 °F /  12.7 °C 29.59in /  1001.9hPa Calm     47% 0.00in /  0mm 0.00 W/m2
02:24 76.6 °F /  24.8 °C 54.9 °F /  12.7 °C 29.59in /  1001.9hPa Calm   1.0mph /  1.6km/h 47% 0.00in /  0mm 0.00 W/m2
02:29 76.6 °F /  24.8 °C 54.9 °F /  12.7 °C 29.59in /  1001.9hPa Calm   2.0mph /  3.2km/h 47% 0.00in /  0mm 0.00 W/m2
02:34 76.6 °F /  24.8 °C 54.9 °F /  12.7 °C 29.59in /  1001.9hPa Calm   3.0mph /  4.8km/h 47% 0.00in /  0mm 0.00 W/m2
02:39 76.5 °F /  24.7 °C 55.4 °F /  13 °C 29.59in /  1001.9hPa ENE 0.9mph /  1.4km/h 4.0mph /  6.4km/h 48% 0.00in /  0mm 0.00 W/m2
02:44 76.3 °F /  24.6 °C 56.3 °F /  13.5 °C 29.59in /  1001.9hPa East 4.0mph /  6.4km/h 4.0mph /  6.4km/h 50% 0.00in /  0mm 0.00 W/m2
02:49 75.9 °F /  24.4 °C 57.0 °F /  13.9 °C 29.58in /  1001.6hPa NE 2.0mph /  3.2km/h 6.0mph /  9.7km/h 52% 0.00in /  0mm 0.00 W/m2
02:54 75.6 °F /  24.2 °C 57.2 °F /  14 °C 29.58in /  1001.6hPa ESE 4.9mph /  7.9km/h 6.0mph /  9.7km/h 53% 0.00in /  0mm 0.00 W/m2
02:59 75.4 °F /  24.1 °C 57.0 °F /  13.9 °C 29.57in /  1001.2hPa NE 2.0mph /  3.2km/h 4.0mph /  6.4km/h 53% 0.00in /  0mm 0.00 W/m2
03:03 75.0 °F /  23.9 °C 56.7 °F /  13.7 °C 29.57in /  1001.2hPa SE 0.9mph /  1.4km/h 2.0mph /  3.2km/h 53% 0.00in /  0mm 0.00 W/m2
03:09 74.8 °F /  23.8 °C 56.5 °F /  13.6 °C 29.57in /  1001.2hPa Calm   1.0mph /  1.6km/h 53% 0.00in /  0mm 0.00 W/m2
03:14 74.7 °F /  23.7 °C 56.5 °F /  13.6 °C 29.58in /  1001.6hPa ESE 2.0mph /  3.2km/h 3.0mph /  4.8km/h 53% 0.00in /  0mm 0.00 W/m2
03:19 74.7 °F /  23.7 °C 56.8 °F /  13.8 °C 29.57in /  1001.2hPa SE 2.0mph /  3.2km/h 3.0mph /  4.8km/h 54% 0.00in /  0mm 0.00 W/m2
03:24 74.5 °F /  23.6 °C 56.7 °F /  13.7 °C 29.57in /  1001.2hPa NNE 2.9mph /  4.7km/h 5.0mph /  8km/h 54% 0.00in /  0mm 0.00 W/m2
03:29 74.3 °F /  23.5 °C 56.7 °F /  13.7 °C 29.58in /  1001.6hPa Calm   1.0mph /  1.6km/h 54% 0.00in /  0mm 0.00 W/m2
03:34 74.1 °F /  23.4 °C 56.5 °F /  13.6 °C 29.58in /  1001.6hPa Calm     54% 0.00in /  0mm 0.00 W/m2
03:39 73.9 °F /  23.3 °C 56.3 °F /  13.5 °C 29.58in /  1001.6hPa Calm   1.0mph /  1.6km/h 54% 0.00in /  0mm 0.00 W/m2
03:44 73.9 °F /  23.3 °C 56.3 °F /  13.5 °C 29.58in /  1001.6hPa Calm   1.0mph /  1.6km/h 54% 0.00in /  0mm 0.00 W/m2
03:49 73.8 °F /  23.2 °C 55.6 °F /  13.1 °C 29.58in /  1001.6hPa Calm   2.0mph /  3.2km/h 53% 0.00in /  0mm 0.00 W/m2
03:54 73.8 °F /  23.2 °C 56.1 °F /  13.4 °C 29.58in /  1001.6hPa Calm   1.0mph /  1.6km/h 54% 0.00in /  0mm 0.00 W/m2
03:59 73.6 °F /  23.1 °C 54.9 °F /  12.7 °C 29.58in /  1001.6hPa Calm   3.0mph /  4.8km/h 52% 0.00in /  0mm 0.00 W/m2
04:04 73.2 °F /  22.9 °C 55.0 °F /  12.8 °C 29.58in /  1001.6hPa Calm   1.0mph /  1.6km/h 53% 0.00in /  0mm 0.00 W/m2
04:09 73.0 °F /  22.8 °C 54.9 °F /  12.7 °C 29.59in /  1001.9hPa Calm     53% 0.00in /  0mm 0.00 W/m2
04:14 72.9 °F /  22.7 °C 54.7 °F /  12.6 °C 29.59in /  1001.9hPa Calm   1.0mph /  1.6km/h 53% 0.00in /  0mm 0.00 W/m2
04:19 72.7 °F /  22.6 °C 54.5 °F /  12.5 °C 29.59in /  1001.9hPa Calm   1.0mph /  1.6km/h 53% 0.00in /  0mm 0.00 W/m2
04:24 72.5 °F /  22.5 °C 54.9 °F /  12.7 °C 29.59in /  1001.9hPa Calm   1.0mph /  1.6km/h 54% 0.00in /  0mm 0.00 W/m2
04:29 72.3 °F /  22.4 °C 54.7 °F /  12.6 °C 29.59in /  1001.9hPa Calm   1.0mph /  1.6km/h 54% 0.00in /  0mm 0.00 W/m2
04:33 72.3 °F /  22.4 °C 54.7 °F /  12.6 °C 29.60in /  1002.3hPa Calm     54% 0.00in /  0mm 0.00 W/m2
04:39 72.3 °F /  22.4 °C 55.2 °F /  12.9 °C 29.60in /  1002.3hPa SSE 2.0mph /  3.2km/h 4.0mph /  6.4km/h 55% 0.00in /  0mm 0.00 W/m2
04:44 72.1 °F /  22.3 °C 55.0 °F /  12.8 °C 29.60in /  1002.3hPa SSE 2.9mph /  4.7km/h 4.0mph /  6.4km/h 55% 0.00in /  0mm 0.00 W/m2
04:49 72.3 °F /  22.4 °C 55.2 °F /  12.9 °C 29.60in /  1002.3hPa Calm   4.0mph /  6.4km/h 55% 0.00in /  0mm 0.00 W/m2
04:54 72.3 °F /  22.4 °C 55.2 °F /  12.9 °C 29.60in /  1002.3hPa Calm   2.0mph /  3.2km/h 55% 0.00in /  0mm 0.00 W/m2
04:59 72.3 °F /  22.4 °C 55.2 °F /  12.9 °C 29.60in /  1002.3hPa SE 0.9mph /  1.4km/h 3.0mph /  4.8km/h 55% 0.00in /  0mm 0.00 W/m2
05:04 72.7 °F /  22.6 °C 55.6 °F /  13.1 °C 29.60in /  1002.3hPa Calm   1.0mph /  1.6km/h 55% 0.00in /  0mm 0.00 W/m2
05:09 72.9 °F /  22.7 °C 55.2 °F /  12.9 °C 29.60in /  1002.3hPa Calm   1.0mph /  1.6km/h 54% 0.00in /  0mm 0.00 W/m2
05:14 72.9 °F /  22.7 °C 54.7 °F /  12.6 °C 29.60in /  1002.3hPa SE 0.9mph /  1.4km/h 3.0mph /  4.8km/h 53% 0.00in /  0mm 0.00 W/m2
05:18 73.0 °F /  22.8 °C 54.3 °F /  12.4 °C 29.60in /  1002.3hPa SE 0.9mph /  1.4km/h 3.0mph /  4.8km/h 52% 0.00in /  0mm 0.00 W/m2
05:24 73.2 °F /  22.9 °C 53.4 °F /  11.9 °C 29.59in /  1001.9hPa Calm   1.0mph /  1.6km/h 50% 0.00in /  0mm 0.00 W/m2
05:29 73.6 °F /  23.1 °C 53.8 °F /  12.1 °C 29.59in /  1001.9hPa Calm   3.0mph /  4.8km/h 50% 0.00in /  0mm 0.00 W/m2
05:34 73.8 °F /  23.2 °C 55.0 °F /  12.8 °C 29.59in /  1001.9hPa Calm   1.0mph /  1.6km/h 52% 0.00in /  0mm 0.00 W/m2
05:39 73.8 °F /  23.2 °C 55.0 °F /  12.8 °C 29.59in /  1001.9hPa SE 0.9mph /  1.4km/h 2.0mph /  3.2km/h 52% 0.00in /  0mm 0.00 W/m2
05:44 73.6 °F /  23.1 °C 53.8 °F /  12.1 °C 29.59in /  1001.9hPa ENE 2.0mph /  3.2km/h 4.0mph /  6.4km/h 50% 0.00in /  0mm 0.00 W/m2
05:49 73.6 °F /  23.1 °C 53.8 °F /  12.1 °C 29.59in /  1001.9hPa ENE 0.9mph /  1.4km/h 2.0mph /  3.2km/h 50% 0.00in /  0mm 0.00 W/m2
05:54 73.6 °F /  23.1 °C 53.8 °F /  12.1 °C 29.59in /  1001.9hPa Calm   2.0mph /  3.2km/h 50% 0.00in /  0mm 0.00 W/m2
05:58 73.8 °F /  23.2 °C 54.5 °F /  12.5 °C 29.59in /  1001.9hPa Calm   1.0mph /  1.6km/h 51% 0.00in /  0mm 0.00 W/m2
06:04 73.6 °F /  23.1 °C 53.8 °F /  12.1 °C 29.59in /  1001.9hPa Calm   2.0mph /  3.2km/h 50% 0.00in /  0mm 0.00 W/m2
06:09 73.6 °F /  23.1 °C 52.7 °F /  11.5 °C 29.59in /  1001.9hPa Calm   6.0mph /  9.7km/h 48% 0.00in /  0mm 0.00 W/m2
06:14 73.4 °F /  23 °C 52.0 °F /  11.1 °C 29.59in /  1001.9hPa ENE 0.9mph /  1.4km/h 4.0mph /  6.4km/h 47% 0.00in /  0mm 0.00 W/m2
06:19 73.4 °F /  23 °C 52.0 °F /  11.1 °C 29.60in /  1002.3hPa ENE 0.9mph /  1.4km/h 1.0mph /  1.6km/h 47% 0.00in /  0mm 5.00 W/m2
06:24 73.2 °F /  22.9 °C 51.3 °F /  10.7 °C 29.59in /  1001.9hPa ENE 2.0mph /  3.2km/h 3.0mph /  4.8km/h 46% 0.00in /  0mm 5.00 W/m2
06:29 73.2 °F /  22.9 °C 51.3 °F /  10.7 °C 29.60in /  1002.3hPa Calm   1.0mph /  1.6km/h 46% 0.00in /  0mm 9.00 W/m2
06:34 73.0 °F /  22.8 °C 51.1 °F /  10.6 °C 29.60in /  1002.3hPa Calm     46% 0.00in /  0mm 11.00 W/m2
06:39 73.0 °F /  22.8 °C 51.1 °F /  10.6 °C 29.61in /  1002.6hPa Calm     46% 0.00in /  0mm 14.00 W/m2
06:43 72.9 °F /  22.7 °C 51.4 °F /  10.8 °C 29.61in /  1002.6hPa Calm     47% 0.00in /  0mm 14.00 W/m2
06:49 72.7 °F /  22.6 °C 51.3 °F /  10.7 °C 29.61in /  1002.6hPa Calm     47% 0.00in /  0mm 18.00 W/m2
06:54 72.5 °F /  22.5 °C 51.6 °F /  10.9 °C 29.61in /  1002.6hPa Calm     48% 0.00in /  0mm 19.00 W/m2
06:59 72.3 °F /  22.4 °C 51.4 °F /  10.8 °C 29.62in /  1002.9hPa Calm     48% 0.00in /  0mm 19.00 W/m2
07:04 72.1 °F /  22.3 °C 50.7 °F /  10.4 °C 29.62in /  1002.9hPa Calm   1.0mph /  1.6km/h 47% 0.00in /  0mm 21.00 W/m2
07:09 72.1 °F /  22.3 °C 50.7 °F /  10.4 °C 29.62in /  1002.9hPa Calm   1.0mph /  1.6km/h 47% 0.00in /  0mm 21.00 W/m2
07:14 72.1 °F /  22.3 °C 50.7 °F /  10.4 °C 29.62in /  1002.9hPa ENE 0.9mph /  1.4km/h 2.0mph /  3.2km/h 47% 0.00in /  0mm 25.00 W/m2
07:19 72.3 °F /  22.4 °C 50.4 °F /  10.2 °C 29.63in /  1003.3hPa ENE 0.9mph /  1.4km/h 3.0mph /  4.8km/h 46% 0.00in /  0mm 26.00 W/m2
07:23 72.5 °F /  22.5 °C 50.5 °F /  10.3 °C 29.63in /  1003.3hPa ENE 4.0mph /  6.4km/h 6.0mph /  9.7km/h 46% 0.00in /  0mm 28.00 W/m2
07:29 73.0 °F /  22.8 °C 50.4 °F /  10.2 °C 29.63in /  1003.3hPa NNE 2.0mph /  3.2km/h 4.0mph /  6.4km/h 45% 0.00in /  0mm 28.00 W/m2
07:34 73.6 °F /  23.1 °C 50.9 °F /  10.5 °C 29.63in /  1003.3hPa Calm   4.0mph /  6.4km/h 45% 0.00in /  0mm 26.00 W/m2
07:39 73.8 °F /  23.2 °C 51.1 °F /  10.6 °C 29.63in /  1003.3hPa NE 0.9mph /  1.4km/h 5.0mph /  8km/h 45% 0.00in /  0mm 35.00 W/m2
07:44 73.9 °F /  23.3 °C 51.8 °F /  11 °C 29.63in /  1003.3hPa NE 4.9mph /  7.9km/h 6.0mph /  9.7km/h 46% 0.00in /  0mm 56.00 W/m2
07:49 74.1 °F /  23.4 °C 52.0 °F /  11.1 °C 29.63in /  1003.3hPa NE 0.9mph /  1.4km/h 3.0mph /  4.8km/h 46% 0.00in /  0mm 56.00 W/m2
07:54 74.5 °F /  23.6 °C 52.3 °F /  11.3 °C 29.63in /  1003.3hPa NNE 4.0mph /  6.4km/h 7.0mph /  11.3km/h 46% 0.00in /  0mm 40.00 W/m2
07:59 75.0 °F /  23.9 °C 52.9 °F /  11.6 °C 29.63in /  1003.3hPa NE 4.0mph /  6.4km/h 6.0mph /  9.7km/h 46% 0.00in /  0mm 195.00 W/m2
08:04 75.4 °F /  24.1 °C 53.2 °F /  11.8 °C 29.63in /  1003.3hPa ESE 2.0mph /  3.2km/h 4.0mph /  6.4km/h 46% 0.00in /  0mm 350.00 W/m2
08:09 75.9 °F /  24.4 °C 53.6 °F /  12 °C 29.63in /  1003.3hPa ESE 4.0mph /  6.4km/h 4.0mph /  6.4km/h 46% 0.00in /  0mm 364.00 W/m2
08:14 76.5 °F /  24.7 °C 53.6 °F /  12 °C 29.64in /  1003.6hPa East 4.0mph /  6.4km/h 6.0mph /  9.7km/h 45% 0.00in /  0mm 390.00 W/m2
08:19 77.4 °F /  25.2 °C 53.1 °F /  11.7 °C 29.64in /  1003.6hPa East 4.9mph /  7.9km/h 7.0mph /  11.3km/h 43% 0.00in /  0mm 408.00 W/m2
08:24 78.1 °F /  25.6 °C 53.8 °F /  12.1 °C 29.64in /  1003.6hPa Calm   5.0mph /  8km/h 43% 0.00in /  0mm 427.00 W/m2
08:29 79.0 °F /  26.1 °C 54.0 °F /  12.2 °C 29.64in /  1003.6hPa Calm   2.0mph /  3.2km/h 42% 0.00in /  0mm 448.00 W/m2
08:34 79.5 °F /  26.4 °C 53.8 °F /  12.1 °C 29.64in /  1003.6hPa NE 2.0mph /  3.2km/h 5.0mph /  8km/h 41% 0.00in /  0mm 468.00 W/m2
08:39 80.4 °F /  26.9 °C 54.0 °F /  12.2 °C 29.64in /  1003.6hPa Calm   5.0mph /  8km/h 40% 0.00in /  0mm 485.00 W/m2
08:44 80.8 °F /  27.1 °C 54.1 °F /  12.3 °C 29.63in /  1003.3hPa ESE 2.9mph /  4.7km/h 5.0mph /  8km/h 40% 0.00in /  0mm 508.00 W/m2
08:49 81.0 °F /  27.2 °C 54.3 °F /  12.4 °C 29.63in /  1003.3hPa ENE 6.0mph /  9.7km/h 6.0mph /  9.7km/h 40% 0.00in /  0mm 527.00 W/m2
08:54 81.5 °F /  27.5 °C 54.1 °F /  12.3 °C 29.63in /  1003.3hPa SE 0.9mph /  1.4km/h 4.0mph /  6.4km/h 39% 0.00in /  0mm 541.00 W/m2
08:59 81.9 °F /  27.7 °C 54.5 °F /  12.5 °C 29.63in /  1003.3hPa SE 2.0mph /  3.2km/h 6.0mph /  9.7km/h 39% 0.00in /  0mm 561.00 W/m2
09:04 82.2 °F /  27.9 °C 54.1 °F /  12.3 °C 29.63in /  1003.3hPa ENE 2.9mph /  4.7km/h 5.0mph /  8km/h 38% 0.00in /  0mm 578.00 W/m2
09:09 82.9 °F /  28.3 °C 54.7 °F /  12.6 °C 29.63in /  1003.3hPa ESE 2.0mph /  3.2km/h 5.0mph /  8km/h 38% 0.00in /  0mm 594.00 W/m2
09:14 83.3 °F /  28.5 °C 54.3 °F /  12.4 °C 29.63in /  1003.3hPa ESE 0.9mph /  1.4km/h 3.0mph /  4.8km/h 37% 0.00in /  0mm 613.00 W/m2
09:19 83.8 °F /  28.8 °C 54.0 °F /  12.2 °C 29.63in /  1003.3hPa NW 2.0mph /  3.2km/h 4.0mph /  6.4km/h 36% 0.00in /  0mm 626.00 W/m2
09:24 84.4 °F /  29.1 °C 54.5 °F /  12.5 °C 29.63in /  1003.3hPa NW 4.9mph /  7.9km/h 6.0mph /  9.7km/h 36% 0.00in /  0mm 645.00 W/m2
09:29 84.6 °F /  29.2 °C 54.7 °F /  12.6 °C 29.63in /  1003.3hPa NW 2.0mph /  3.2km/h 4.0mph /  6.4km/h 36% 0.00in /  0mm 663.00 W/m2
09:34 85.1 °F /  29.5 °C 54.3 °F /  12.4 °C 29.63in /  1003.3hPa NW 4.9mph /  7.9km/h 6.0mph /  9.7km/h 35% 0.00in /  0mm 680.00 W/m2
09:39 85.6 °F /  29.8 °C 54.9 °F /  12.7 °C 29.63in /  1003.3hPa West 2.9mph /  4.7km/h 7.0mph /  11.3km/h 35% 0.00in /  0mm 698.00 W/m2
09:43 85.5 °F /  29.7 °C 54.7 °F /  12.6 °C 29.62in /  1002.9hPa East 6.0mph /  9.7km/h 8.0mph /  12.9km/h 35% 0.00in /  0mm 712.00 W/m2
09:49 85.8 °F /  29.9 °C 55.0 °F /  12.8 °C 29.62in /  1002.9hPa East 4.9mph /  7.9km/h 8.0mph /  12.9km/h 35% 0.00in /  0mm 726.00 W/m2
09:54 86.2 °F /  30.1 °C 55.4 °F /  13 °C 29.62in /  1002.9hPa ENE 6.0mph /  9.7km/h 8.0mph /  12.9km/h 35% 0.00in /  0mm 747.00 W/m2
09:59 86.5 °F /  30.3 °C 54.9 °F /  12.7 °C 29.62in /  1002.9hPa South 4.0mph /  6.4km/h 5.0mph /  8km/h 34% 0.00in /  0mm 761.00 W/m2
10:04 86.9 °F /  30.5 °C 55.2 °F /  12.9 °C 29.62in /  1002.9hPa NNW 2.9mph /  4.7km/h 5.0mph /  8km/h 34% 0.00in /  0mm 780.00 W/m2
10:09 87.4 °F /  30.8 °C 54.9 °F /  12.7 °C 29.62in /  1002.9hPa ENE 0.9mph /  1.4km/h 7.0mph /  11.3km/h 33% 0.00in /  0mm 789.00 W/m2
10:14 87.8 °F /  31 °C 54.3 °F /  12.4 °C 29.62in /  1002.9hPa NNE 6.0mph /  9.7km/h 10.0mph /  16.1km/h 32% 0.00in /  0mm 805.00 W/m2
10:19 88.2 °F /  31.2 °C 54.5 °F /  12.5 °C 29.62in /  1002.9hPa NNW 4.0mph /  6.4km/h 7.0mph /  11.3km/h 32% 0.00in /  0mm 824.00 W/m2
10:24 88.3 °F /  31.3 °C 54.7 °F /  12.6 °C 29.62in /  1002.9hPa ENE 2.0mph /  3.2km/h 2.0mph /  3.2km/h 32% 0.00in /  0mm 842.00 W/m2
10:29 88.5 °F /  31.4 °C 54.0 °F /  12.2 °C 29.61in /  1002.6hPa NE 2.0mph /  3.2km/h 8.0mph /  12.9km/h 31% 0.00in /  0mm 854.00 W/m2
10:34 88.9 °F /  31.6 °C 55.2 °F /  12.9 °C 29.61in /  1002.6hPa Calm   1.0mph /  1.6km/h 32% 0.00in /  0mm 868.00 W/m2
10:39 89.2 °F /  31.8 °C 53.8 °F /  12.1 °C 29.61in /  1002.6hPa NNE 4.0mph /  6.4km/h 5.0mph /  8km/h 30% 0.00in /  0mm 888.00 W/m2
10:44 89.8 °F /  32.1 °C 53.2 °F /  11.8 °C 29.61in /  1002.6hPa SSE 2.9mph /  4.7km/h 8.0mph /  12.9km/h 29% 0.00in /  0mm 895.00 W/m2
10:49 90.0 °F /  32.2 °C 53.4 °F /  11.9 °C 29.61in /  1002.6hPa Calm   5.0mph /  8km/h 29% 0.00in /  0mm 933.00 W/m2
10:54 90.0 °F /  32.2 °C 53.4 °F /  11.9 °C 29.61in /  1002.6hPa North 0.9mph /  1.4km/h 2.0mph /  3.2km/h 29% 0.00in /  0mm 935.00 W/m2
10:59 89.8 °F /  32.1 °C 53.2 °F /  11.8 °C 29.61in /  1002.6hPa SW 2.9mph /  4.7km/h 6.0mph /  9.7km/h 29% 0.00in /  0mm 956.00 W/m2
11:04 88.9 °F /  31.6 °C 53.4 °F /  11.9 °C 29.60in /  1002.3hPa Calm   5.0mph /  8km/h 30% 0.00in /  0mm 1005.00 W/m2
11:08 88.9 °F /  31.6 °C 53.4 °F /  11.9 °C 29.60in /  1002.3hPa Calm   2.0mph /  3.2km/h 30% 0.00in /  0mm 1011.00 W/m2
11:14 89.4 °F /  31.9 °C 53.1 °F /  11.7 °C 29.60in /  1002.3hPa ENE 2.0mph /  3.2km/h 9.0mph /  14.5km/h 29% 0.00in /  0mm 1039.00 W/m2
11:19 89.4 °F /  31.9 °C 52.0 °F /  11.1 °C 29.60in /  1002.3hPa North 4.0mph /  6.4km/h 5.0mph /  8km/h 28% 0.00in /  0mm 1078.00 W/m2
11:24 89.8 °F /  32.1 °C 51.3 °F /  10.7 °C 29.60in /  1002.3hPa NW 0.9mph /  1.4km/h 7.0mph /  11.3km/h 27% 0.00in /  0mm 264.00 W/m2
11:29 89.8 °F /  32.1 °C 52.3 °F /  11.3 °C 29.59in /  1001.9hPa NE 4.0mph /  6.4km/h 7.0mph /  11.3km/h 28% 0.00in /  0mm 243.00 W/m2
11:34 90.1 °F /  32.3 °C 50.5 °F /  10.3 °C 29.59in /  1001.9hPa East 4.9mph /  7.9km/h 7.0mph /  11.3km/h 26% 0.00in /  0mm 1104.00 W/m2
11:39 90.9 °F /  32.7 °C 50.2 °F /  10.1 °C 29.59in /  1001.9hPa South 4.9mph /  7.9km/h 12.0mph /  19.3km/h 25% 0.00in /  0mm 1078.00 W/m2
11:44 91.4 °F /  33 °C 49.5 °F /  9.7 °C 29.59in /  1001.9hPa East 0.9mph /  1.4km/h 10.0mph /  16.1km/h 24% 0.00in /  0mm 1107.00 W/m2
11:49 91.9 °F /  33.3 °C 51.1 °F /  10.6 °C 29.59in /  1001.9hPa SSE 2.0mph /  3.2km/h 4.0mph /  6.4km/h 25% 0.00in /  0mm 1144.00 W/m2
11:54 92.5 °F /  33.6 °C 50.4 °F /  10.2 °C 29.59in /  1001.9hPa ENE 0.9mph /  1.4km/h 8.0mph /  12.9km/h 24% 0.00in /  0mm 1167.00 W/m2
11:58 92.7 °F /  33.7 °C 50.5 °F /  10.3 °C 29.59in /  1001.9hPa SSE 4.0mph /  6.4km/h 9.0mph /  14.5km/h 24% 0.00in /  0mm 264.00 W/m2
12:04 92.5 °F /  33.6 °C 50.4 °F /  10.2 °C 29.59in /  1001.9hPa East 10.1mph /  16.3km/h 10.0mph /  16.1km/h 24% 0.00in /  0mm 1155.00 W/m2
12:09 92.3 °F /  33.5 °C 50.4 °F /  10.2 °C 29.59in /  1001.9hPa NE 6.0mph /  9.7km/h 9.0mph /  14.5km/h 24% 0.00in /  0mm 1136.00 W/m2
12:14 92.7 °F /  33.7 °C 49.5 °F /  9.7 °C 29.59in /  1001.9hPa Calm   5.0mph /  8km/h 23% 0.00in /  0mm 1197.00 W/m2
12:19 93.0 °F /  33.9 °C 50.9 °F /  10.5 °C 29.59in /  1001.9hPa North 6.9mph /  11.1km/h 9.0mph /  14.5km/h 24% 0.00in /  0mm 227.00 W/m2
12:24 93.4 °F /  34.1 °C 50.0 °F /  10 °C 29.59in /  1001.9hPa East 6.9mph /  11.1km/h 11.0mph /  17.7km/h 23% 0.00in /  0mm 1204.00 W/m2
12:29 93.6 °F /  34.2 °C 50.2 °F /  10.1 °C 29.59in /  1001.9hPa NNW 4.9mph /  7.9km/h 7.0mph /  11.3km/h 23% 0.00in /  0mm 1169.00 W/m2
12:34 94.3 °F /  34.6 °C 49.6 °F /  9.8 °C 29.59in /  1001.9hPa NE 12.1mph /  19.5km/h 13.0mph /  20.9km/h 22% 0.00in /  0mm 1151.00 W/m2
12:39 94.3 °F /  34.6 °C 49.6 °F /  9.8 °C 29.58in /  1001.6hPa North 2.0mph /  3.2km/h 4.0mph /  6.4km/h 22% 0.00in /  0mm 1144.00 W/m2
Olympia, Windhoek, Namibia
Compliments of Weather Underground - 2.5 mb